Time;durP1;ratioP1;P1;durP2;ratioP2;P2;SDS_P1;SDS_P2;PMS_P1;PMS_P2;Temp;Humidity;BMP_temperature;BMP_pressure;BME280_temperature;BME280_humidity;BME280_pressure;Samples;Min_cycle;Max_cycle;Signal;HPM_P1;HPM_P2
2021/07/12 00:02:14;;;;;;;21.77;16.02;;;19.70;99.90;;;;;;4922726;29;20203;-92
2021/07/12 00:04:40;;;;;;;22.95;15.63;;;19.70;99.90;;;;;;4906824;29;20226;-92
2021/07/12 00:07:06;;;;;;;17.33;15.45;;;19.70;99.90;;;;;;4939309;29;20641;-93
2021/07/12 00:09:31;;;;;;;17.58;15.50;;;19.70;99.90;;;;;;4939645;29;20255;-93
2021/07/12 00:11:57;;;;;;;23.10;14.48;;;19.70;99.90;;;;;;4938968;29;20251;-92
2021/07/12 00:14:23;;;;;;;18.10;15.10;;;19.70;99.90;;;;;;4922274;29;20195;-93
2021/07/12 00:16:48;;;;;;;22.52;15.73;;;19.70;99.90;;;;;;4906784;29;20184;-93
2021/07/12 00:19:14;;;;;;;23.92;15.35;;;19.70;99.90;;;;;;4922893;29;20192;-93
2021/07/12 00:21:41;;;;;;;22.85;15.75;;;19.70;99.90;;;;;;4939823;29;20172;-92
2021/07/12 00:24:07;;;;;;;21.58;16.05;;;19.70;99.90;;;;;;4939028;29;20207;-94
2021/07/12 00:26:32;;;;;;;25.50;15.57;;;19.80;99.90;;;;;;4922382;29;20188;-92
2021/07/12 00:28:58;;;;;;;18.67;15.40;;;19.70;99.90;;;;;;4922159;29;20547;-93
2021/07/12 00:31:24;;;;;;;24.13;14.75;;;19.70;99.90;;;;;;4922583;29;20204;-92
2021/07/12 00:33:50;;;;;;;22.13;14.88;;;19.70;99.90;;;;;;4906149;29;20191;-93
2021/07/12 00:36:15;;;;;;;19.55;14.50;;;19.70;99.90;;;;;;4939245;29;20176;-92
2021/07/12 00:38:41;;;;;;;23.27;14.35;;;19.70;99.90;;;;;;4939266;29;20197;-92
2021/07/12 00:41:06;;;;;;;21.77;14.32;;;19.70;99.90;;;;;;4938494;29;20255;-92
2021/07/12 00:43:34;;;;;;;15.93;13.88;;;19.70;99.90;;;;;;4890511;29;20661;-92
2021/07/12 00:46:00;;;;;;;20.65;13.68;;;19.60;99.90;;;;;;4921524;29;20184;-93
2021/07/12 00:48:25;;;;;;;29.75;14.20;;;19.60;99.90;;;;;;4938566;29;20184;-92
2021/07/12 00:50:51;;;;;;;20.80;14.15;;;19.60;99.90;;;;;;4937904;29;20231;-92
2021/07/12 00:53:18;;;;;;;20.50;13.98;;;19.50;99.90;;;;;;4938762;29;20662;-91
2021/07/12 00:55:49;;;;;;;25.90;14.68;;;19.40;99.90;;;;;;4938614;29;20184;-92
2021/07/12 00:58:21;;;;;;;18.70;13.82;;;19.40;99.90;;;;;;4938941;29;20168;-92
2021/07/12 01:00:49;;;;;;;28.00;14.65;;;19.40;99.90;;;;;;4938625;29;20164;-92
2021/07/12 01:03:16;;;;;;;23.17;14.20;;;19.40;99.90;;;;;;4938271;29;20586;-93
2021/07/12 01:05:42;;;;;;;18.45;14.13;;;19.40;99.90;;;;;;4938589;29;20184;-92
2021/07/12 01:08:08;;;;;;;21.50;13.23;;;19.30;99.90;;;;;;4936912;29;20536;-93
2021/07/12 01:10:35;;;;;;;26.23;15.70;;;19.30;99.90;;;;;;4938531;29;20187;-93
2021/07/12 01:13:12;;;;;;;30.15;14.90;;;19.30;99.90;;;;;;4937730;29;20188;-92
2021/07/12 01:16:02;;;;;;;23.35;14.48;;;19.30;99.90;;;;;;4921765;29;20226;-93
2021/07/12 01:18:33;;;;;;;29.73;15.23;;;19.20;99.90;;;;;;4874056;29;20603;-93
2021/07/12 01:21:39;;;;;;;27.25;15.95;;;19.20;99.90;;;;;;4921217;29;20183;-92
2021/07/12 01:24:05;;;;;;;23.70;14.45;;;19.20;99.90;;;;;;4937861;29;20231;-93
2021/07/12 01:26:52;;;;;;;27.05;15.13;;;19.20;99.90;;;;;;4921406;29;20188;-93
2021/07/12 01:29:27;;;;;;;31.85;16.00;;;19.20;99.90;;;;;;4920940;29;20207;-92
2021/07/12 01:32:03;;;;;;;32.17;15.27;;;19.20;99.90;;;;;;4937786;29;20226;-88
2021/07/12 01:34:51;;;;;;;21.65;14.90;;;19.10;99.90;;;;;;4920899;29;20186;-92
2021/07/12 01:37:36;;;;;;;27.15;15.23;;;19.10;99.90;;;;;;4937548;29;20242;-91
2021/07/12 01:40:09;;;;;;;23.42;14.32;;;19.10;99.90;;;;;;4937678;29;20178;-93
2021/07/12 01:42:41;;;;;;;18.23;14.05;;;19.10;99.90;;;;;;4938125;29;20199;-91
2021/07/12 01:45:17;;;;;;;31.45;15.38;;;19.10;99.90;;;;;;4937488;29;20180;-93
2021/07/12 01:48:05;;;;;;;24.83;14.68;;;19.00;99.90;;;;;;4904878;29;20199;-93
2021/07/12 01:50:55;;;;;;;28.63;14.05;;;19.00;99.90;;;;;;4937482;29;20727;-92
2021/07/12 01:53:36;;;;;;;29.02;14.40;;;19.00;99.90;;;;;;4937613;29;20293;-91
2021/07/12 01:56:15;;;;;;;21.10;14.38;;;19.00;99.90;;;;;;4937333;29;20179;-91
2021/07/12 01:58:56;;;;;;;27.65;14.70;;;19.00;99.90;;;;;;4937621;29;20164;-92
2021/07/12 02:01:26;;;;;;;27.08;15.63;;;18.90;99.90;;;;;;4937732;29;20221;-93
2021/07/12 02:03:54;;;;;;;28.10;15.23;;;18.90;99.90;;;;;;4937471;29;20664;-92
2021/07/12 02:06:21;;;;;;;26.15;14.77;;;18.90;99.90;;;;;;4920089;29;20192;-91
2021/07/12 02:08:50;;;;;;;28.58;15.10;;;18.90;99.90;;;;;;4920421;29;20271;-92
2021/07/12 02:11:17;;;;;;;32.85;15.48;;;18.90;99.90;;;;;;4936799;29;20176;-92
2021/07/12 02:13:49;;;;;;;25.08;14.07;;;18.90;99.90;;;;;;4920213;29;20672;-92
2021/07/12 02:16:18;;;;;;;30.38;15.13;;;18.80;99.90;;;;;;4937157;29;20614;-93
2021/07/12 02:18:45;;;;;;;30.65;14.18;;;18.80;99.90;;;;;;4936865;29;20176;-92
2021/07/12 02:21:11;;;;;;;28.13;15.48;;;18.80;99.90;;;;;;4919927;29;20191;-92
2021/07/12 02:23:40;;;;;;;26.13;16.10;;;18.80;99.90;;;;;;4937139;29;20195;-92
2021/07/12 02:26:09;;;;;;;21.88;14.90;;;18.80;99.90;;;;;;4919647;29;20204;-91
2021/07/12 02:28:36;;;;;;;24.90;16.55;;;18.80;99.90;;;;;;4936296;29;20191;-91
2021/07/12 02:31:02;;;;;;;27.77;15.70;;;18.80;99.90;;;;;;4936516;29;20176;-91
2021/07/12 02:33:29;;;;;;;21.77;16.08;;;18.80;99.90;;;;;;4919919;29;20282;-91
2021/07/12 02:35:55;;;;;;;27.13;15.18;;;18.80;99.90;;;;;;4922067;29;20195;-91
2021/07/12 02:38:22;;;;;;;24.38;15.70;;;18.80;99.90;;;;;;4934429;29;20172;-91
2021/07/12 02:40:50;;;;;;;23.95;15.95;;;18.80;99.90;;;;;;4951137;29;20203;-92
2021/07/12 02:43:16;;;;;;;28.77;16.70;;;18.80;99.90;;;;;;4959378;29;20255;-93
2021/07/12 02:45:46;;;;;;;28.67;16.52;;;18.70;99.90;;;;;;4936506;29;20258;-92
2021/07/12 02:48:12;;;;;;;31.20;17.98;;;18.70;99.90;;;;;;4919468;29;20195;-91
2021/07/12 02:50:39;;;;;;;26.55;17.80;;;18.80;99.90;;;;;;4919092;29;20287;-91
2021/07/12 02:53:20;;;;;;;30.55;17.13;;;18.80;99.90;;;;;;4918988;29;20180;-92
2021/07/12 02:55:46;;;;;;;29.08;17.23;;;18.80;99.90;;;;;;4919261;29;20183;-90
2021/07/12 02:58:12;;;;;;;26.95;18.10;;;18.80;99.90;;;;;;4919089;29;20274;-90
2021/07/12 03:00:38;;;;;;;28.40;17.70;;;18.80;99.90;;;;;;4919327;29;20235;-92
2021/07/12 03:03:04;;;;;;;29.30;17.38;;;18.70;99.90;;;;;;4935966;29;20219;-88
2021/07/12 03:05:29;;;;;;;31.65;17.38;;;18.80;99.90;;;;;;4919400;29;20187;-91
2021/07/12 03:08:14;;;;;;;24.08;18.42;;;18.80;99.90;;;;;;4919265;29;20186;-92
2021/07/12 03:10:59;;;;;;;31.75;17.70;;;18.80;99.90;;;;;;4919293;29;20536;-90
2021/07/12 03:14:05;;;;;;;34.30;18.50;;;18.80;99.90;;;;;;4935786;29;20263;-92
2021/07/12 03:16:31;;;;;;;25.50;18.00;;;18.80;99.90;;;;;;4931265;29;20192;-90
2021/07/12 03:19:01;;;;;;;27.02;18.20;;;18.80;99.90;;;;;;4936276;29;20629;-92
2021/07/12 03:21:27;;;;;;;30.85;18.02;;;18.90;99.90;;;;;;4935675;29;20278;-91
2021/07/12 03:23:55;;;;;;;28.88;17.83;;;18.90;99.90;;;;;;4935868;29;20215;-91
2021/07/12 03:26:23;;;;;;;29.58;17.90;;;18.90;99.90;;;;;;4918579;29;20192;-91
2021/07/12 03:28:54;;;;;;;31.58;18.20;;;18.90;99.90;;;;;;4918796;29;20278;-90
2021/07/12 03:31:23;;;;;;;35.13;17.65;;;19.00;99.90;;;;;;4934798;29;20224;-91
2021/07/12 03:33:52;;;;;;;30.73;18.58;;;19.00;99.90;;;;;;4935540;29;20176;-90
2021/07/12 03:36:19;;;;;;;29.17;17.27;;;19.00;99.90;;;;;;4918467;29;20235;-91
2021/07/12 03:38:45;;;;;;;32.25;18.77;;;19.10;99.90;;;;;;4918844;29;20180;-91
2021/07/12 03:41:11;;;;;;;32.03;16.65;;;19.10;99.90;;;;;;4918457;29;20184;-90
2021/07/12 03:43:40;;;;;;;30.80;17.80;;;19.20;99.90;;;;;;4903109;29;20234;-90
2021/07/12 03:46:08;;;;;;;27.08;17.42;;;19.20;99.90;;;;;;4935687;29;20226;-90
2021/07/12 03:48:37;;;;;;;35.17;17.95;;;19.20;99.90;;;;;;4935584;29;20188;-90
2021/07/12 03:51:06;;;;;;;28.98;17.92;;;19.30;99.90;;;;;;4935796;29;20233;-90
2021/07/12 03:53:33;;;;;;;38.10;18.73;;;19.40;99.90;;;;;;4935445;29;20263;-90
2021/07/12 03:55:59;;;;;;;32.15;17.67;;;19.40;99.90;;;;;;4918823;29;20263;-90
2021/07/12 03:58:24;;;;;;;34.42;19.27;;;19.50;99.90;;;;;;4918518;29;20199;-90
2021/07/12 04:00:50;;;;;;;31.08;17.48;;;19.60;99.90;;;;;;4935865;29;20292;-90
2021/07/12 04:03:16;;;;;;;32.85;19.33;;;19.70;99.90;;;;;;4918308;29;20208;-90
2021/07/12 04:05:41;;;;;;;30.20;18.08;;;19.70;99.90;;;;;;4887312;29;20629;-89
2021/07/12 04:08:07;;;;;;;30.17;19.63;;;19.90;99.90;;;;;;4935614;29;20630;-90
2021/07/12 04:10:33;;;;;;;29.73;19.05;;;20.00;99.90;;;;;;4918120;29;20641;-90
2021/07/12 04:12:59;;;;;;;31.77;18.13;;;20.00;99.90;;;;;;4918604;29;20271;-90
2021/07/12 04:15:24;;;;;;;28.80;17.77;;;20.10;99.90;;;;;;4918346;29;20184;-90
2021/07/12 04:17:50;;;;;;;25.23;17.30;;;20.10;99.90;;;;;;4902791;29;20215;-89
2021/07/12 04:20:16;;;;;;;27.33;17.67;;;20.20;99.90;;;;;;4918266;29;20195;-89
2021/07/12 04:22:43;;;;;;;27.73;17.25;;;20.20;99.90;;;;;;4918519;29;20200;-89
2021/07/12 04:25:10;;;;;;;28.65;17.83;;;20.30;99.90;;;;;;4935777;29;20184;-89
2021/07/12 04:27:36;;;;;;;25.33;17.92;;;20.40;99.90;;;;;;4935072;29;20545;-91
2021/07/12 04:30:04;;;;;;;21.95;16.60;;;20.50;99.90;;;;;;4935157;29;20176;-89
2021/07/12 04:32:30;;;;;;;28.92;17.63;;;20.50;99.90;;;;;;4935012;29;20180;-89
2021/07/12 04:34:55;;;;;;;25.35;18.77;;;20.60;99.90;;;;;;4935416;29;20701;-89
2021/07/12 04:37:21;;;;;;;23.45;16.83;;;20.70;99.90;;;;;;4935087;29;20179;-89
2021/07/12 04:39:47;;;;;;;23.27;16.40;;;20.80;99.90;;;;;;4935074;29;20211;-91
2021/07/12 04:42:13;;;;;;;26.77;17.02;;;20.90;99.90;;;;;;4920227;29;20184;-90
2021/07/12 04:44:38;;;;;;;21.00;16.60;;;21.00;99.90;;;;;;4938259;29;20617;-91
2021/07/12 04:47:04;;;;;;;22.15;16.98;;;21.10;99.90;;;;;;4921590;29;20184;-90
2021/07/12 04:49:30;;;;;;;25.95;17.48;;;21.10;99.90;;;;;;4939021;29;20641;-90
2021/07/12 04:51:56;;;;;;;21.70;17.02;;;21.20;99.90;;;;;;4921383;29;20223;-90
2021/07/12 04:54:21;;;;;;;32.28;18.48;;;21.30;99.90;;;;;;4921162;29;20279;-90
2021/07/12 04:56:47;;;;;;;25.55;18.10;;;21.30;99.90;;;;;;4938817;29;20176;-90
2021/07/12 04:59:13;;;;;;;29.30;16.77;;;21.40;99.90;;;;;;4937956;29;20187;-90
2021/07/12 05:01:41;;;;;;;28.90;16.42;;;21.50;99.90;;;;;;4937956;29;20987;-90
2021/07/12 05:04:07;;;;;;;30.73;17.80;;;21.60;99.90;;;;;;4905700;29;20245;-90
2021/07/12 05:06:34;;;;;;;29.30;17.83;;;21.60;99.90;;;;;;4937611;29;20184;-89
2021/07/12 05:09:00;;;;;;;23.58;16.63;;;21.70;99.90;;;;;;4921346;29;20235;-89
2021/07/12 05:11:28;;;;;;;22.65;17.30;;;21.80;99.90;;;;;;4904892;29;20191;-90
2021/07/12 05:13:53;;;;;;;22.73;15.98;;;21.90;99.90;;;;;;4938249;29;20227;-92
2021/07/12 05:16:20;;;;;;;21.25;15.23;;;22.00;99.90;;;;;;4938068;29;20208;-89
2021/07/12 05:18:47;;;;;;;19.20;14.30;;;22.10;99.90;;;;;;4937949;29;20215;-89
2021/07/12 05:21:13;;;;;;;24.75;15.77;;;22.20;99.90;;;;;;4920948;29;20267;-89
2021/07/12 05:23:38;;;;;;;20.65;17.38;;;22.30;99.90;;;;;;4920566;29;20239;-89
2021/07/12 05:26:04;;;;;;;23.25;14.80;;;22.40;99.90;;;;;;4921006;29;20215;-89
2021/07/12 05:28:31;;;;;;;21.58;15.30;;;22.50;99.90;;;;;;4904778;29;20599;-89
2021/07/12 05:30:56;;;;;;;20.75;16.90;;;22.60;99.90;;;;;;4938147;29;20191;-90
2021/07/12 05:33:22;;;;;;;23.02;16.88;;;22.70;99.90;;;;;;4920501;29;20554;-89
2021/07/12 05:35:47;;;;;;;21.77;15.02;;;22.80;99.90;;;;;;4938193;29;20202;-92
2021/07/12 05:38:13;;;;;;;21.45;14.65;;;22.90;99.90;;;;;;4904852;29;20318;-90
2021/07/12 05:40:39;;;;;;;23.27;16.88;;;23.10;99.90;;;;;;4937876;29;20211;-90
2021/07/12 05:43:04;;;;;;;22.42;14.55;;;23.10;99.90;;;;;;4937163;29;20216;-91
2021/07/12 05:45:30;;;;;;;22.02;13.63;;;23.30;99.90;;;;;;4904109;29;20195;-94
2021/07/12 05:47:57;;;;;;;16.27;13.13;;;23.40;99.90;;;;;;4937272;29;20259;-91
2021/07/12 05:50:22;;;;;;;23.65;13.55;;;23.50;99.90;;;;;;4936824;29;20231;-90
2021/07/12 05:52:48;;;;;;;19.27;12.85;;;23.60;99.90;;;;;;4935921;29;20213;-91
2021/07/12 05:55:14;;;;;;;24.85;12.52;;;23.80;99.90;;;;;;4936314;29;20186;-93
2021/07/12 05:57:40;;;;;;;21.73;13.48;;;23.80;99.90;;;;;;4919422;29;20271;-92
2021/07/12 06:00:08;;;;;;;22.63;12.30;;;23.90;99.90;;;;;;4905998;29;20180;-90
2021/07/12 06:02:33;;;;;;;15.48;12.68;;;24.00;99.90;;;;;;4928864;29;20270;-92
2021/07/12 06:04:59;;;;;;;16.55;12.40;;;24.20;99.90;;;;;;4949574;29;20180;-90
2021/07/12 06:07:25;;;;;;;17.30;11.45;;;24.30;99.90;;;;;;4949016;29;20180;-91
2021/07/12 06:09:50;;;;;;;13.88;10.65;;;24.40;99.90;;;;;;4942209;29;20215;-91
2021/07/12 06:12:16;;;;;;;17.00;10.82;;;24.50;99.90;;;;;;4919759;29;20236;-91
2021/07/12 06:14:42;;;;;;;11.88;9.50;;;24.70;99.90;;;;;;4936153;29;20259;-90
2021/07/12 06:17:08;;;;;;;15.23;8.82;;;24.90;99.90;;;;;;4936315;29;20192;-90
2021/07/12 06:19:33;;;;;;;13.73;8.55;;;25.00;99.90;;;;;;4935935;29;20180;-91
2021/07/12 06:21:59;;;;;;;15.13;8.85;;;25.10;99.90;;;;;;4919389;29;20183;-91
2021/07/12 06:24:25;;;;;;;16.58;9.85;;;25.20;99.90;;;;;;4919083;29;20409;-92
2021/07/12 06:26:51;;;;;;;13.73;8.48;;;25.30;99.90;;;;;;4918545;29;20203;-94
2021/07/12 06:29:20;;;;;;;13.05;8.57;;;25.40;99.90;;;;;;4919468;29;20207;-91
2021/07/12 06:31:46;;;;;;;10.52;8.40;;;25.40;99.90;;;;;;4904215;29;20204;-92
2021/07/12 06:34:11;;;;;;;20.55;8.68;;;25.50;99.90;;;;;;4919103;29;20238;-95
2021/07/12 06:36:37;;;;;;;12.80;8.40;;;25.60;99.90;;;;;;4919647;29;20184;-92
2021/07/12 06:39:04;;;;;;;20.85;11.13;;;25.70;99.90;;;;;;4903386;29;20278;-92
2021/07/12 06:41:30;;;;;;;15.13;9.68;;;25.80;99.90;;;;;;4936604;29;20685;-91
2021/07/12 06:43:56;;;;;;;13.85;8.00;;;25.90;99.90;;;;;;4936263;29;20208;-91
2021/07/12 06:46:22;;;;;;;13.60;9.43;;;26.00;99.90;;;;;;4919885;29;20346;-92
2021/07/12 06:48:47;;;;;;;12.70;10.27;;;26.10;99.90;;;;;;4918443;29;20252;-92
2021/07/12 06:51:13;;;;;;;14.80;9.05;;;26.20;99.90;;;;;;4918906;29;20240;-91
2021/07/12 06:53:39;;;;;;;11.73;8.18;;;26.30;99.90;;;;;;4918368;29;20181;-92
2021/07/12 06:56:05;;;;;;;15.35;8.13;;;26.30;99.90;;;;;;4935834;29;20188;-93
2021/07/12 06:58:30;;;;;;;11.80;8.73;;;26.50;99.90;;;;;;4935842;29;20227;-93
2021/07/12 07:00:56;;;;;;;15.35;8.45;;;26.60;99.90;;;;;;4936028;29;20642;-93
2021/07/12 07:03:22;;;;;;;14.88;8.80;;;26.60;99.90;;;;;;4936362;29;20547;-91
2021/07/12 07:05:48;;;;;;;12.27;8.77;;;26.80;99.90;;;;;;4917165;29;20199;-89
2021/07/12 07:08:14;;;;;;;20.42;7.65;;;26.90;99.90;;;;;;4915784;29;20559;-92
2021/07/12 07:10:39;;;;;;;18.00;9.90;;;;;;;;;;4899636;29;20220;-92
2021/07/12 07:13:06;;;;;;;12.40;6.38;;;;;;;;;;4906144;29;20717;-90
2021/07/12 07:15:31;;;;;;;11.93;6.93;;;;;;;;;;4935144;29;20250;-91
2021/07/12 07:17:59;;;;;;;18.83;6.88;;;;;;;;;;4922489;29;20239;-90
2021/07/12 07:20:25;;;;;;;12.10;6.97;;;27.50;99.90;;;;;;4929118;29;20188;-93
2021/07/12 07:22:51;;;;;;;10.18;7.00;;;;;;;;;;4924278;29;20208;-91
2021/07/12 07:25:17;;;;;;;12.25;8.70;;;27.70;99.90;;;;;;4933041;29;20536;-94
2021/07/12 07:27:44;;;;;;;14.32;5.82;;;27.90;99.90;;;;;;4930182;29;20310;-94
2021/07/12 07:30:12;;;;;;;8.07;5.45;;;27.90;99.90;;;;;;4924422;29;20204;-90
2021/07/12 07:32:38;;;;;;;8.75;5.50;;;;;;;;;;4891769;29;20232;-91
2021/07/12 07:35:06;;;;;;;9.35;5.38;;;28.00;99.90;;;;;;4898792;29;20196;-96
2021/07/12 07:37:32;;;;;;;11.10;5.70;;;;;;;;;;4931241;29;20238;-95
2021/07/12 07:39:58;;;;;;;9.50;5.40;;;;;;;;;;4934540;29;20192;-91
2021/07/12 07:42:24;;;;;;;8.57;5.18;;;28.30;99.90;;;;;;4934509;29;20215;-96
2021/07/12 07:44:51;;;;;;;7.85;4.78;;;28.50;99.90;;;;;;4933656;29;20208;-89
2021/07/12 07:47:17;;;;;;;12.10;6.15;;;28.60;99.90;;;;;;4917220;29;20191;-90
2021/07/12 07:49:43;;;;;;;12.00;5.53;;;;;;;;;;4918241;29;20248;-95
2021/07/12 07:52:09;;;;;;;11.95;5.00;;;;;;;;;;4916863;29;20184;-90
2021/07/12 07:54:35;;;;;;;14.63;5.20;;;;;;;;;;4934135;29;20223;-92
2021/07/12 07:57:00;;;;;;;6.25;4.35;;;29.00;99.90;;;;;;4916871;29;20185;-89
2021/07/12 07:59:26;;;;;;;9.20;4.93;;;;;;;;;;4934072;29;20715;-93
2021/07/12 08:01:52;;;;;;;9.57;5.13;;;29.10;99.90;;;;;;4921387;29;20194;-91
2021/07/12 08:04:18;;;;;;;8.57;4.78;;;29.20;99.90;;;;;;4915130;29;20208;-88
2021/07/12 08:06:43;;;;;;;12.43;5.28;;;29.30;99.90;;;;;;4897920;29;20326;-87
2021/07/12 08:09:09;;;;;;;6.60;4.90;;;;;;;;;;4915281;29;20192;-91
2021/07/12 08:11:35;;;;;;;11.18;4.75;;;29.30;99.90;;;;;;4899996;29;20239;-93
2021/07/12 08:14:02;;;;;;;14.68;4.72;;;29.50;99.90;;;;;;4935396;29;20200;-93
2021/07/12 08:16:28;;;;;;;9.40;4.18;;;29.50;99.90;;;;;;4935705;29;20199;-96
2021/07/12 08:18:54;;;;;;;7.82;4.75;;;;;;;;;;4913842;29;20667;-93
2021/07/12 08:21:20;;;;;;;6.35;4.20;;;29.70;99.90;;;;;;4902773;29;20196;-93
2021/07/12 08:23:46;;;;;;;8.32;4.05;;;29.70;99.90;;;;;;4931490;29;20207;-93
2021/07/12 08:26:12;;;;;;;4.63;3.75;;;29.80;99.90;;;;;;4920254;29;20193;-95
2021/07/12 08:28:40;;;;;;;8.18;4.68;;;29.90;99.90;;;;;;4920644;29;20275;-92
2021/07/12 08:31:06;;;;;;;10.40;4.32;;;29.90;99.90;;;;;;4935323;29;20188;-91
2021/07/12 08:33:32;;;;;;;7.65;4.65;;;30.00;99.90;;;;;;4937318;29;20270;-93
2021/07/12 08:35:58;;;;;;;6.03;4.40;;;30.10;99.90;;;;;;4919774;29;20276;-91
2021/07/12 08:38:25;;;;;;;5.38;4.30;;;30.10;98.30;;;;;;4933838;29;20263;-91
2021/07/12 08:40:56;;;;;;;7.97;4.35;;;30.20;98.90;;;;;;4917956;29;20255;-91
2021/07/12 08:43:22;;;;;;;8.02;5.10;;;30.20;98.90;;;;;;4933107;29;20199;-90
2021/07/12 08:45:48;;;;;;;16.50;5.10;;;30.40;98.30;;;;;;4935287;29;20187;-89
2021/07/12 08:48:14;;;;;;;14.27;5.35;;;;;;;;;;4937034;29;20212;-94
2021/07/12 08:50:41;;;;;;;8.65;5.60;;;30.40;97.60;;;;;;4936366;29;20255;-92
2021/07/12 08:53:07;;;;;;;10.38;5.75;;;30.50;96.80;;;;;;4919628;29;20215;-90
2021/07/12 08:55:33;;;;;;;8.18;5.78;;;30.50;96.70;;;;;;4932036;29;20188;-91
2021/07/12 08:58:04;;;;;;;11.63;6.53;;;30.30;97.40;;;;;;4912902;29;20342;-92
2021/07/12 09:00:57;;;;;;;11.35;7.25;;;30.30;97.60;;;;;;4937977;29;20208;-92
2021/07/12 09:03:29;;;;;;;10.07;6.05;;;30.20;99.20;;;;;;4936782;29;20200;-95
2021/07/12 09:06:11;;;;;;;8.55;6.00;;;30.20;99.20;;;;;;4935736;29;20198;-92
2021/07/12 09:08:56;;;;;;;8.85;5.68;;;30.30;99.90;;;;;;4914036;29;20195;-93
2021/07/12 09:11:32;;;;;;;10.63;6.80;;;30.60;98.50;;;;;;4921872;29;20566;-94
2021/07/12 09:14:01;;;;;;;14.55;6.07;;;30.60;97.20;;;;;;4939293;29;20239;-93
2021/07/12 09:16:51;;;;;;;17.23;5.95;;;30.80;97.50;;;;;;4935649;29;20343;-94
2021/07/12 09:19:29;;;;;;;7.95;6.32;;;30.90;98.70;;;;;;4918530;29;20668;-92
2021/07/12 09:22:11;;;;;;;11.57;6.20;;;31.00;97.60;;;;;;4913605;29;20640;-94
2021/07/12 09:24:40;;;;;;;10.27;5.72;;;31.10;94.60;;;;;;4923401;29;20199;-95
2021/07/12 09:27:10;;;;;;;9.40;5.63;;;31.10;93.20;;;;;;4936818;29;20250;-93
2021/07/12 09:29:41;;;;;;;9.85;5.28;;;31.10;93.60;;;;;;4939447;29;20188;-93
2021/07/12 09:32:10;;;;;;;12.65;5.65;;;31.20;92.70;;;;;;4935839;29;20195;-92
2021/07/12 09:34:37;;;;;;;10.30;4.85;;;31.30;91.90;;;;;;4936719;29;20183;-95
2021/07/12 09:37:03;;;;;;;10.18;5.45;;;31.30;91.80;;;;;;4924338;29;20641;-95
2021/07/12 09:39:33;;;;;;;8.05;5.03;;;31.30;92.70;;;;;;4938295;29;20183;-93
2021/07/12 09:42:11;;;;;;;10.30;6.18;;;31.30;91.70;;;;;;4911804;29;20250;-95
2021/07/12 09:44:42;;;;;;;5.75;5.05;;;31.30;92.20;;;;;;4920738;29;20677;-92
2021/07/12 09:47:20;;;;;;;7.20;5.78;;;31.30;92.00;;;;;;4900865;29;20658;-91
2021/07/12 09:49:50;;;;;;;6.65;5.38;;;31.50;91.50;;;;;;4916161;29;20236;-90
2021/07/12 09:52:18;;;;;;;7.45;5.30;;;31.50;91.90;;;;;;4916441;29;20586;-94
2021/07/12 09:54:47;;;;;;;7.13;5.80;;;31.60;91.30;;;;;;4933750;29;20218;-92
2021/07/12 09:57:19;;;;;;;10.15;5.00;;;31.70;86.20;;;;;;4909114;29;20184;-92
2021/07/12 09:59:58;;;;;;;8.27;5.30;;;31.70;86.50;;;;;;4935832;29;20183;-91
2021/07/12 10:02:26;;;;;;;8.70;5.47;;;31.80;84.50;;;;;;4937681;29;20175;-92
2021/07/12 10:05:00;;;;;;;7.95;5.18;;;31.40;84.60;;;;;;4939063;29;20537;-87
2021/07/12 10:07:27;;;;;;;8.73;6.20;;;31.30;87.40;;;;;;4936157;29;20171;-91
2021/07/12 10:09:53;;;;;;;11.75;6.32;;;31.40;86.40;;;;;;4935894;29;20725;-89
2021/07/12 10:12:19;;;;;;;11.38;5.70;;;31.50;88.60;;;;;;4936595;29;20803;-91
2021/07/12 10:14:45;;;;;;;10.02;6.38;;;31.30;85.90;;;;;;4936195;29;20188;-90
2021/07/12 10:17:12;;;;;;;11.73;5.95;;;30.90;88.90;;;;;;4937692;29;20180;-93
2021/07/12 10:19:38;;;;;;;11.32;6.28;;;30.60;89.70;;;;;;4918318;29;20204;-88
2021/07/12 10:22:07;;;;;;;10.85;6.20;;;30.70;90.80;;;;;;4918621;29;20191;-88
2021/07/12 10:24:41;;;;;;;11.98;6.30;;;31.00;90.70;;;;;;4935789;29;20199;-89
2021/07/12 10:27:18;;;;;;;13.05;6.85;;;31.30;88.40;;;;;;4933359;29;20247;-89
2021/07/12 10:29:44;;;;;;;11.90;5.97;;;31.60;89.60;;;;;;4916253;29;20175;-89
2021/07/12 10:32:13;;;;;;;12.88;6.28;;;31.70;89.60;;;;;;4918571;29;20692;-91
2021/07/12 10:34:41;;;;;;;11.88;6.35;;;31.90;86.70;;;;;;4935796;29;20187;-91
2021/07/12 10:37:19;;;;;;;9.77;6.07;;;31.90;88.00;;;;;;4918656;29;20211;-90
2021/07/12 10:39:57;;;;;;;11.95;6.78;;;31.90;88.20;;;;;;4935420;29;20204;-90
2021/07/12 10:42:56;;;;;;;14.88;7.10;;;32.20;88.60;;;;;;4918894;29;20549;-88
2021/07/12 10:45:28;;;;;;;13.77;6.88;;;32.40;87.90;;;;;;4938206;29;20672;-89
2021/07/12 10:48:04;;;;;;;11.43;6.25;;;32.40;81.50;;;;;;4934687;29;20220;-90
2021/07/12 10:50:41;;;;;;;14.75;7.45;;;32.40;82.00;;;;;;4933876;29;20735;-90
2021/07/12 10:53:15;;;;;;;9.15;6.45;;;32.30;83.30;;;;;;4934451;29;20184;-90
2021/07/12 10:55:44;;;;;;;11.52;6.22;;;32.20;84.60;;;;;;4934321;29;20175;-90
2021/07/12 10:58:19;;;;;;;8.38;5.70;;;32.30;81.40;;;;;;4935137;29;20652;-90
2021/07/12 11:00:45;;;;;;;6.93;5.30;;;32.10;79.00;;;;;;4935478;29;20179;-90
2021/07/12 11:03:33;;;;;;;11.55;5.65;;;32.30;82.20;;;;;;4934557;29;20306;-92
2021/07/12 11:05:59;;;;;;;10.50;6.45;;;31.90;83.20;;;;;;4940116;29;20180;-91
2021/07/12 11:08:53;;;;;;;8.32;6.45;;;30.80;82.10;;;;;;4935257;29;20192;-91
2021/07/12 11:11:18;;;;;;;11.05;6.22;;;31.70;81.60;;;;;;4916863;29;20195;-89
2021/07/12 11:13:51;;;;;;;10.15;6.35;;;31.50;83.00;;;;;;4934878;29;20183;-90
2021/07/12 11:16:22;;;;;;;13.93;6.85;;;31.30;84.00;;;;;;4934104;29;20297;-92
2021/07/12 11:18:50;;;;;;;10.15;6.63;;;31.50;84.40;;;;;;4933803;29;20175;-91
2021/07/12 11:21:35;;;;;;;9.82;6.55;;;31.00;82.60;;;;;;4935112;29;20243;-92
2021/07/12 11:24:09;;;;;;;7.68;6.25;;;31.20;82.30;;;;;;4918416;29;20961;-88
2021/07/12 11:26:42;;;;;;;13.05;6.25;;;31.20;85.50;;;;;;4934997;29;20201;-93
2021/07/12 11:29:18;;;;;;;8.77;6.00;;;31.50;83.00;;;;;;4935769;29;20278;-94
2021/07/12 11:31:47;;;;;;;10.57;6.45;;;31.80;81.10;;;;;;4936784;29;20176;-92
2021/07/12 11:34:16;;;;;;;12.90;6.05;;;31.80;80.40;;;;;;4935656;29;20211;-91
2021/07/12 11:36:51;;;;;;;11.73;6.20;;;31.80;81.50;;;;;;4919114;29;20176;-92
2021/07/12 11:39:21;;;;;;;9.32;5.70;;;31.50;80.00;;;;;;4934761;29;20659;-92
2021/07/12 11:41:47;;;;;;;11.68;5.55;;;31.40;79.50;;;;;;4934986;29;20633;-91
2021/07/12 11:44:15;;;;;;;7.07;5.70;;;31.60;78.50;;;;;;4918348;29;20200;-91
2021/07/12 11:46:41;;;;;;;11.93;5.50;;;31.70;76.90;;;;;;4935117;29;20310;-90
2021/07/12 11:49:11;;;;;;;18.25;6.75;;;31.70;79.50;;;;;;4918163;29;20192;-92
2021/07/12 11:51:37;;;;;;;8.60;5.47;;;32.00;80.70;;;;;;4918496;29;20223;-92
2021/07/12 11:54:17;;;;;;;12.07;5.43;;;32.30;76.30;;;;;;4921196;29;20188;-89
2021/07/12 11:57:03;;;;;;;11.30;6.15;;;32.50;79.30;;;;;;4938189;29;20274;-91
2021/07/12 11:59:34;;;;;;;10.02;5.57;;;32.60;75.40;;;;;;4921015;29;20176;-92
2021/07/12 12:02:11;;;;;;;7.13;6.00;;;32.60;72.60;;;;;;4937825;29;20570;-91
2021/07/12 12:04:42;;;;;;;6.72;5.90;;;32.60;76.60;;;;;;4936739;29;20195;-92
2021/07/12 12:07:22;;;;;;;8.80;5.97;;;32.70;76.50;;;;;;4920039;29;20188;-92
2021/07/12 12:10:07;;;;;;;8.32;5.80;;;32.60;75.80;;;;;;4937276;29;20231;-91
2021/07/12 12:12:37;;;;;;;8.88;5.82;;;32.80;74.10;;;;;;4936019;29;20694;-91
2021/07/12 12:15:10;;;;;;;7.93;5.32;;;32.80;74.90;;;;;;4937459;29;20537;-90
2021/07/12 12:17:38;;;;;;;9.20;5.38;;;32.80;71.70;;;;;;4936353;29;20176;-90
2021/07/12 12:20:07;;;;;;;9.55;5.22;;;32.60;71.90;;;;;;4921461;29;20172;-90
2021/07/12 12:22:33;;;;;;;6.90;5.80;;;32.60;71.90;;;;;;4920737;29;20195;-90
2021/07/12 12:25:00;;;;;;;7.53;5.18;;;32.80;72.00;;;;;;4921095;29;20179;-91
2021/07/12 12:27:26;;;;;;;7.03;5.90;;;32.80;73.90;;;;;;4935950;29;20176;-91
2021/07/12 12:29:52;;;;;;;9.32;5.93;;;32.90;71.70;;;;;;4921799;29;20179;-90
2021/07/12 12:32:32;;;;;;;12.98;5.38;;;32.90;70.80;;;;;;4920615;29;20232;-90
2021/07/12 12:35:00;;;;;;;9.20;5.43;;;33.00;71.30;;;;;;4938344;29;20646;-91
2021/07/12 12:37:34;;;;;;;7.38;5.28;;;33.00;71.90;;;;;;4921134;29;20183;-92
2021/07/12 12:40:17;;;;;;;16.48;5.88;;;32.70;72.50;;;;;;4921576;29;20231;-90
2021/07/12 12:42:47;;;;;;;14.07;6.30;;;32.70;73.70;;;;;;4936030;29;20211;-91
2021/07/12 12:45:29;;;;;;;13.70;6.53;;;32.80;74.00;;;;;;4938110;29;20317;-92
2021/07/12 12:47:57;;;;;;;10.32;7.60;;;33.00;71.50;;;;;;4937215;29;20263;-92
2021/07/12 12:50:24;;;;;;;7.40;5.72;;;32.90;72.00;;;;;;4937689;29;20278;-91